sensor_id;sensor_type;location;lat;lon;timestamp;P1;durP1;ratioP1;P2;durP2;ratioP2
10661;SDS011;5379;51.034;7.006;2022-08-19T00:00:16;12.03;;;5.37;;
10661;SDS011;5379;51.034;7.006;2022-08-19T00:02:44;14.47;;;5.03;;
10661;SDS011;5379;51.034;7.006;2022-08-19T00:05:13;13.23;;;5.73;;
10661;SDS011;5379;51.034;7.006;2022-08-19T00:07:41;5.53;;;5.03;;
10661;SDS011;5379;51.034;7.006;2022-08-19T00:10:09;6.43;;;5.53;;
10661;SDS011;5379;51.034;7.006;2022-08-19T00:12:37;5.93;;;5.30;;
10661;SDS011;5379;51.034;7.006;2022-08-19T00:15:04;7.80;;;6.00;;
10661;SDS011;5379;51.034;7.006;2022-08-19T00:17:32;6.63;;;5.60;;
10661;SDS011;5379;51.034;7.006;2022-08-19T00:19:59;5.67;;;5.17;;
10661;SDS011;5379;51.034;7.006;2022-08-19T00:22:27;6.50;;;5.90;;
10661;SDS011;5379;51.034;7.006;2022-08-19T00:24:54;6.60;;;5.90;;
10661;SDS011;5379;51.034;7.006;2022-08-19T00:27:21;6.30;;;5.70;;
10661;SDS011;5379;51.034;7.006;2022-08-19T00:29:48;6.30;;;5.70;;
10661;SDS011;5379;51.034;7.006;2022-08-19T00:32:16;7.20;;;6.33;;
10661;SDS011;5379;51.034;7.006;2022-08-19T00:34:43;8.10;;;6.37;;
10661;SDS011;5379;51.034;7.006;2022-08-19T00:37:11;7.10;;;6.00;;
10661;SDS011;5379;51.034;7.006;2022-08-19T00:39:39;7.00;;;6.30;;
10661;SDS011;5379;51.034;7.006;2022-08-19T00:42:06;6.33;;;5.80;;
10661;SDS011;5379;51.034;7.006;2022-08-19T00:44:33;6.77;;;6.07;;
10661;SDS011;5379;51.034;7.006;2022-08-19T00:47:00;15.70;;;6.40;;
10661;SDS011;5379;51.034;7.006;2022-08-19T00:49:29;6.67;;;5.67;;
10661;SDS011;5379;51.034;7.006;2022-08-19T00:51:59;6.03;;;5.53;;
10661;SDS011;5379;51.034;7.006;2022-08-19T00:54:30;11.77;;;5.63;;
10661;SDS011;5379;51.034;7.006;2022-08-19T00:56:59;7.13;;;6.10;;
10661;SDS011;5379;51.034;7.006;2022-08-19T00:59:30;6.60;;;5.90;;
10661;SDS011;5379;51.034;7.006;2022-08-19T01:01:58;6.53;;;5.93;;
10661;SDS011;5379;51.034;7.006;2022-08-19T01:04:26;6.67;;;5.93;;
10661;SDS011;5379;51.034;7.006;2022-08-19T01:06:53;7.00;;;6.40;;
10661;SDS011;5379;51.034;7.006;2022-08-19T01:09:21;7.50;;;5.70;;
10661;SDS011;5379;51.034;7.006;2022-08-19T01:11:49;10.47;;;6.00;;
10661;SDS011;5379;51.034;7.006;2022-08-19T01:14:18;6.53;;;5.93;;
10661;SDS011;5379;51.034;7.006;2022-08-19T01:16:46;6.63;;;5.97;;
10661;SDS011;5379;51.034;7.006;2022-08-19T01:19:15;6.63;;;6.03;;
10661;SDS011;5379;51.034;7.006;2022-08-19T01:21:58;7.43;;;6.33;;
10661;SDS011;5379;51.034;7.006;2022-08-19T01:24:29;7.47;;;5.90;;
10661;SDS011;5379;51.034;7.006;2022-08-19T01:26:57;6.70;;;5.73;;
10661;SDS011;5379;51.034;7.006;2022-08-19T01:29:24;6.20;;;5.70;;
10661;SDS011;5379;51.034;7.006;2022-08-19T01:31:51;6.67;;;6.00;;
10661;SDS011;5379;51.034;7.006;2022-08-19T01:34:19;6.97;;;6.37;;
10661;SDS011;5379;51.034;7.006;2022-08-19T01:36:47;7.17;;;6.47;;
10661;SDS011;5379;51.034;7.006;2022-08-19T01:39:15;6.77;;;6.10;;
10661;SDS011;5379;51.034;7.006;2022-08-19T01:41:46;6.60;;;5.63;;
10661;SDS011;5379;51.034;7.006;2022-08-19T01:44:14;6.53;;;5.93;;
10661;SDS011;5379;51.034;7.006;2022-08-19T01:46:42;6.50;;;5.90;;
10661;SDS011;5379;51.034;7.006;2022-08-19T01:49:09;6.93;;;6.33;;
10661;SDS011;5379;51.034;7.006;2022-08-19T01:51:37;6.87;;;6.17;;
10661;SDS011;5379;51.034;7.006;2022-08-19T01:54:04;6.77;;;6.07;;
10661;SDS011;5379;51.034;7.006;2022-08-19T01:56:31;6.50;;;5.90;;
10661;SDS011;5379;51.034;7.006;2022-08-19T01:59:00;6.10;;;5.50;;
10661;SDS011;5379;51.034;7.006;2022-08-19T02:01:34;6.63;;;6.03;;
10661;SDS011;5379;51.034;7.006;2022-08-19T02:04:02;6.30;;;5.80;;
10661;SDS011;5379;51.034;7.006;2022-08-19T02:06:30;8.97;;;6.40;;
10661;SDS011;5379;51.034;7.006;2022-08-19T02:08:57;7.80;;;6.03;;
10661;SDS011;5379;51.034;7.006;2022-08-19T02:11:25;7.17;;;5.93;;
10661;SDS011;5379;51.034;7.006;2022-08-19T02:13:53;6.43;;;5.87;;
10661;SDS011;5379;51.034;7.006;2022-08-19T02:16:22;8.03;;;7.13;;
10661;SDS011;5379;51.034;7.006;2022-08-19T02:18:50;33.13;;;23.80;;
10661;SDS011;5379;51.034;7.006;2022-08-19T02:21:18;9.97;;;6.23;;
10661;SDS011;5379;51.034;7.006;2022-08-19T02:23:46;6.47;;;5.87;;
10661;SDS011;5379;51.034;7.006;2022-08-19T02:26:14;6.70;;;6.13;;
10661;SDS011;5379;51.034;7.006;2022-08-19T02:28:41;11.27;;;6.77;;
10661;SDS011;5379;51.034;7.006;2022-08-19T02:31:09;7.03;;;6.40;;
10661;SDS011;5379;51.034;7.006;2022-08-19T02:33:38;6.23;;;5.63;;
10661;SDS011;5379;51.034;7.006;2022-08-19T02:36:06;5.87;;;5.37;;
10661;SDS011;5379;51.034;7.006;2022-08-19T02:38:33;6.50;;;5.90;;
10661;SDS011;5379;51.034;7.006;2022-08-19T02:41:03;6.07;;;5.47;;
10661;SDS011;5379;51.034;7.006;2022-08-19T02:43:32;9.07;;;6.33;;
10661;SDS011;5379;51.034;7.006;2022-08-19T02:46:02;6.07;;;5.57;;
10661;SDS011;5379;51.034;7.006;2022-08-19T02:48:38;6.70;;;6.13;;
10661;SDS011;5379;51.034;7.006;2022-08-19T02:51:05;6.87;;;5.47;;
10661;SDS011;5379;51.034;7.006;2022-08-19T02:53:32;5.93;;;5.37;;
10661;SDS011;5379;51.034;7.006;2022-08-19T02:56:00;6.37;;;5.77;;
10661;SDS011;5379;51.034;7.006;2022-08-19T02:58:27;7.43;;;5.77;;
10661;SDS011;5379;51.034;7.006;2022-08-19T03:00:54;6.30;;;5.77;;
10661;SDS011;5379;51.034;7.006;2022-08-19T03:03:22;6.87;;;6.07;;
10661;SDS011;5379;51.034;7.006;2022-08-19T03:05:51;5.63;;;5.23;;
10661;SDS011;5379;51.034;7.006;2022-08-19T03:08:18;12.23;;;6.03;;
10661;SDS011;5379;51.034;7.006;2022-08-19T03:10:46;6.00;;;5.53;;
10661;SDS011;5379;51.034;7.006;2022-08-19T03:13:14;6.30;;;5.77;;
10661;SDS011;5379;51.034;7.006;2022-08-19T03:15:43;6.47;;;5.87;;
10661;SDS011;5379;51.034;7.006;2022-08-19T03:18:12;8.23;;;6.20;;
10661;SDS011;5379;51.034;7.006;2022-08-19T03:20:41;6.80;;;6.10;;
10661;SDS011;5379;51.034;7.006;2022-08-19T03:23:10;6.27;;;5.67;;
10661;SDS011;5379;51.034;7.006;2022-08-19T03:25:39;6.33;;;5.83;;
10661;SDS011;5379;51.034;7.006;2022-08-19T03:28:08;7.13;;;6.43;;
10661;SDS011;5379;51.034;7.006;2022-08-19T03:30:35;6.67;;;6.10;;
10661;SDS011;5379;51.034;7.006;2022-08-19T03:33:02;8.00;;;6.03;;
10661;SDS011;5379;51.034;7.006;2022-08-19T03:35:29;6.37;;;5.87;;
10661;SDS011;5379;51.034;7.006;2022-08-19T03:37:57;6.53;;;5.93;;
10661;SDS011;5379;51.034;7.006;2022-08-19T03:40:26;6.80;;;6.10;;
10661;SDS011;5379;51.034;7.006;2022-08-19T03:42:55;7.17;;;6.40;;
10661;SDS011;5379;51.034;7.006;2022-08-19T03:45:22;13.67;;;5.93;;
10661;SDS011;5379;51.034;7.006;2022-08-19T03:47:50;8.97;;;6.33;;
10661;SDS011;5379;51.034;7.006;2022-08-19T03:50:17;6.17;;;5.57;;
10661;SDS011;5379;51.034;7.006;2022-08-19T03:52:47;7.20;;;6.30;;
10661;SDS011;5379;51.034;7.006;2022-08-19T03:55:15;7.20;;;6.50;;
10661;SDS011;5379;51.034;7.006;2022-08-19T03:57:44;7.00;;;5.97;;
10661;SDS011;5379;51.034;7.006;2022-08-19T04:00:13;6.77;;;6.00;;
10661;SDS011;5379;51.034;7.006;2022-08-19T04:02:41;7.67;;;6.10;;
10661;SDS011;5379;51.034;7.006;2022-08-19T04:05:08;7.13;;;6.17;;
10661;SDS011;5379;51.034;7.006;2022-08-19T04:07:36;6.77;;;6.13;;
10661;SDS011;5379;51.034;7.006;2022-08-19T04:10:03;7.13;;;6.43;;
10661;SDS011;5379;51.034;7.006;2022-08-19T04:12:31;7.40;;;6.67;;
10661;SDS011;5379;51.034;7.006;2022-08-19T04:14:59;9.70;;;7.10;;
10661;SDS011;5379;51.034;7.006;2022-08-19T04:17:26;6.57;;;5.97;;
10661;SDS011;5379;51.034;7.006;2022-08-19T04:19:53;6.33;;;5.73;;
10661;SDS011;5379;51.034;7.006;2022-08-19T04:22:20;8.33;;;6.10;;
10661;SDS011;5379;51.034;7.006;2022-08-19T04:24:47;9.67;;;6.47;;
10661;SDS011;5379;51.034;7.006;2022-08-19T04:27:14;10.47;;;6.70;;
10661;SDS011;5379;51.034;7.006;2022-08-19T04:29:41;6.57;;;5.97;;
10661;SDS011;5379;51.034;7.006;2022-08-19T04:32:10;7.37;;;6.67;;
10661;SDS011;5379;51.034;7.006;2022-08-19T04:34:40;7.67;;;6.53;;
10661;SDS011;5379;51.034;7.006;2022-08-19T04:37:07;7.07;;;6.37;;
10661;SDS011;5379;51.034;7.006;2022-08-19T04:39:37;6.87;;;6.13;;
10661;SDS011;5379;51.034;7.006;2022-08-19T04:42:22;7.63;;;6.93;;
10661;SDS011;5379;51.034;7.006;2022-08-19T04:45:04;8.20;;;7.33;;
10661;SDS011;5379;51.034;7.006;2022-08-19T04:47:34;8.17;;;6.83;;
10661;SDS011;5379;51.034;7.006;2022-08-19T04:50:02;7.57;;;6.87;;
10661;SDS011;5379;51.034;7.006;2022-08-19T04:52:29;7.20;;;6.50;;
10661;SDS011;5379;51.034;7.006;2022-08-19T04:54:57;9.00;;;7.13;;
10661;SDS011;5379;51.034;7.006;2022-08-19T04:57:24;14.80;;;7.40;;
10661;SDS011;5379;51.034;7.006;2022-08-19T04:59:53;7.80;;;7.10;;
10661;SDS011;5379;51.034;7.006;2022-08-19T05:02:20;7.70;;;7.03;;
10661;SDS011;5379;51.034;7.006;2022-08-19T05:04:55;10.53;;;7.73;;
10661;SDS011;5379;51.034;7.006;2022-08-19T05:07:23;8.93;;;7.67;;
10661;SDS011;5379;51.034;7.006;2022-08-19T05:09:51;7.77;;;7.07;;
10661;SDS011;5379;51.034;7.006;2022-08-19T05:12:18;8.07;;;7.30;;
10661;SDS011;5379;51.034;7.006;2022-08-19T05:14:45;9.03;;;7.80;;
10661;SDS011;5379;51.034;7.006;2022-08-19T05:17:14;8.97;;;7.70;;
10661;SDS011;5379;51.034;7.006;2022-08-19T05:19:41;10.20;;;7.57;;
10661;SDS011;5379;51.034;7.006;2022-08-19T05:22:27;8.40;;;6.33;;
10661;SDS011;5379;51.034;7.006;2022-08-19T05:25:04;7.77;;;6.93;;
10661;SDS011;5379;51.034;7.006;2022-08-19T05:27:33;11.70;;;7.53;;
10661;SDS011;5379;51.034;7.006;2022-08-19T05:30:00;10.23;;;8.23;;
10661;SDS011;5379;51.034;7.006;2022-08-19T05:32:27;8.93;;;8.03;;
10661;SDS011;5379;51.034;7.006;2022-08-19T05:34:54;9.27;;;8.37;;
10661;SDS011;5379;51.034;7.006;2022-08-19T05:37:22;10.50;;;8.63;;
10661;SDS011;5379;51.034;7.006;2022-08-19T05:39:53;9.40;;;8.47;;
10661;SDS011;5379;51.034;7.006;2022-08-19T05:42:21;13.37;;;11.20;;
10661;SDS011;5379;51.034;7.006;2022-08-19T05:44:48;11.90;;;9.90;;
10661;SDS011;5379;51.034;7.006;2022-08-19T05:47:16;19.43;;;15.30;;
10661;SDS011;5379;51.034;7.006;2022-08-19T05:49:44;19.53;;;15.13;;
10661;SDS011;5379;51.034;7.006;2022-08-19T05:52:12;19.00;;;16.50;;
10661;SDS011;5379;51.034;7.006;2022-08-19T05:54:41;20.73;;;15.10;;
10661;SDS011;5379;51.034;7.006;2022-08-19T05:57:14;19.77;;;16.13;;
10661;SDS011;5379;51.034;7.006;2022-08-19T05:59:41;20.87;;;17.80;;
10661;SDS011;5379;51.034;7.006;2022-08-19T06:02:09;22.50;;;17.80;;
10661;SDS011;5379;51.034;7.006;2022-08-19T06:04:36;22.97;;;18.00;;
10661;SDS011;5379;51.034;7.006;2022-08-19T06:07:04;23.67;;;18.30;;
10661;SDS011;5379;51.034;7.006;2022-08-19T06:09:31;22.80;;;19.33;;
10661;SDS011;5379;51.034;7.006;2022-08-19T06:11:58;30.37;;;18.53;;
10661;SDS011;5379;51.034;7.006;2022-08-19T06:14:30;18.13;;;12.73;;
10661;SDS011;5379;51.034;7.006;2022-08-19T06:16:59;23.83;;;18.00;;
10661;SDS011;5379;51.034;7.006;2022-08-19T06:19:27;28.60;;;18.63;;
10661;SDS011;5379;51.034;7.006;2022-08-19T06:21:56;21.13;;;16.90;;
10661;SDS011;5379;51.034;7.006;2022-08-19T06:24:25;20.93;;;18.27;;
10661;SDS011;5379;51.034;7.006;2022-08-19T06:26:54;21.37;;;18.10;;
10661;SDS011;5379;51.034;7.006;2022-08-19T06:29:24;26.60;;;18.57;;
10661;SDS011;5379;51.034;7.006;2022-08-19T06:31:54;23.77;;;19.73;;
10661;SDS011;5379;51.034;7.006;2022-08-19T06:34:23;24.07;;;18.47;;
10661;SDS011;5379;51.034;7.006;2022-08-19T06:36:51;18.67;;;16.63;;
10661;SDS011;5379;51.034;7.006;2022-08-19T06:39:19;18.23;;;16.10;;
10661;SDS011;5379;51.034;7.006;2022-08-19T06:41:50;25.77;;;19.03;;
10661;SDS011;5379;51.034;7.006;2022-08-19T06:44:19;26.03;;;20.60;;
10661;SDS011;5379;51.034;7.006;2022-08-19T06:46:48;28.83;;;19.17;;
10661;SDS011;5379;51.034;7.006;2022-08-19T06:49:17;22.87;;;18.57;;
10661;SDS011;5379;51.034;7.006;2022-08-19T06:51:45;24.97;;;17.47;;
10661;SDS011;5379;51.034;7.006;2022-08-19T06:54:14;31.33;;;17.73;;
10661;SDS011;5379;51.034;7.006;2022-08-19T06:56:42;20.83;;;17.20;;
10661;SDS011;5379;51.034;7.006;2022-08-19T06:59:12;19.73;;;16.27;;
10661;SDS011;5379;51.034;7.006;2022-08-19T07:01:42;23.70;;;17.43;;
10661;SDS011;5379;51.034;7.006;2022-08-19T07:04:13;21.63;;;16.07;;
10661;SDS011;5379;51.034;7.006;2022-08-19T07:06:42;21.33;;;15.60;;
10661;SDS011;5379;51.034;7.006;2022-08-19T07:09:11;21.47;;;16.27;;
10661;SDS011;5379;51.034;7.006;2022-08-19T07:11:43;25.43;;;16.70;;
10661;SDS011;5379;51.034;7.006;2022-08-19T07:14:13;20.57;;;16.93;;
10661;SDS011;5379;51.034;7.006;2022-08-19T07:16:43;24.70;;;16.17;;
10661;SDS011;5379;51.034;7.006;2022-08-19T07:19:11;19.73;;;16.07;;
10661;SDS011;5379;51.034;7.006;2022-08-19T07:21:39;25.00;;;16.13;;
10661;SDS011;5379;51.034;7.006;2022-08-19T07:24:08;17.83;;;15.37;;
10661;SDS011;5379;51.034;7.006;2022-08-19T07:26:37;27.73;;;17.00;;
10661;SDS011;5379;51.034;7.006;2022-08-19T07:29:07;20.53;;;16.67;;
10661;SDS011;5379;51.034;7.006;2022-08-19T07:31:34;23.17;;;18.33;;
10661;SDS011;5379;51.034;7.006;2022-08-19T07:34:03;22.93;;;17.53;;
10661;SDS011;5379;51.034;7.006;2022-08-19T07:36:33;22.97;;;16.43;;
10661;SDS011;5379;51.034;7.006;2022-08-19T07:39:03;18.73;;;16.37;;
10661;SDS011;5379;51.034;7.006;2022-08-19T07:41:34;16.00;;;14.43;;
10661;SDS011;5379;51.034;7.006;2022-08-19T07:44:04;17.97;;;13.40;;
10661;SDS011;5379;51.034;7.006;2022-08-19T07:46:33;22.00;;;16.20;;
10661;SDS011;5379;51.034;7.006;2022-08-19T07:49:02;15.97;;;13.57;;
10661;SDS011;5379;51.034;7.006;2022-08-19T07:51:30;17.03;;;14.40;;
10661;SDS011;5379;51.034;7.006;2022-08-19T07:53:58;20.00;;;15.93;;
10661;SDS011;5379;51.034;7.006;2022-08-19T07:56:25;15.87;;;14.10;;
10661;SDS011;5379;51.034;7.006;2022-08-19T07:58:53;18.20;;;14.83;;
10661;SDS011;5379;51.034;7.006;2022-08-19T08:01:22;19.30;;;16.07;;
10661;SDS011;5379;51.034;7.006;2022-08-19T08:03:51;18.77;;;13.07;;
10661;SDS011;5379;51.034;7.006;2022-08-19T08:06:38;24.20;;;16.40;;
10661;SDS011;5379;51.034;7.006;2022-08-19T08:09:23;20.37;;;14.60;;
10661;SDS011;5379;51.034;7.006;2022-08-19T08:11:52;20.07;;;16.57;;
10661;SDS011;5379;51.034;7.006;2022-08-19T08:14:25;17.03;;;13.73;;
10661;SDS011;5379;51.034;7.006;2022-08-19T08:16:53;24.93;;;18.37;;
10661;SDS011;5379;51.034;7.006;2022-08-19T08:19:21;19.77;;;14.00;;
10661;SDS011;5379;51.034;7.006;2022-08-19T08:21:49;22.90;;;17.93;;
10661;SDS011;5379;51.034;7.006;2022-08-19T08:24:17;17.10;;;15.30;;
10661;SDS011;5379;51.034;7.006;2022-08-19T08:26:45;17.13;;;11.77;;
10661;SDS011;5379;51.034;7.006;2022-08-19T08:29:12;21.13;;;18.10;;
10661;SDS011;5379;51.034;7.006;2022-08-19T08:31:42;17.83;;;12.93;;
10661;SDS011;5379;51.034;7.006;2022-08-19T08:34:10;24.60;;;19.57;;
10661;SDS011;5379;51.034;7.006;2022-08-19T08:36:39;27.30;;;19.33;;
10661;SDS011;5379;51.034;7.006;2022-08-19T08:39:11;23.30;;;19.77;;
10661;SDS011;5379;51.034;7.006;2022-08-19T08:41:46;26.13;;;19.17;;
10661;SDS011;5379;51.034;7.006;2022-08-19T08:44:20;25.17;;;18.10;;
10661;SDS011;5379;51.034;7.006;2022-08-19T08:46:56;24.47;;;16.83;;
10661;SDS011;5379;51.034;7.006;2022-08-19T08:49:29;26.00;;;17.27;;
10661;SDS011;5379;51.034;7.006;2022-08-19T08:52:03;21.43;;;18.27;;
10661;SDS011;5379;51.034;7.006;2022-08-19T08:54:33;21.13;;;18.37;;
10661;SDS011;5379;51.034;7.006;2022-08-19T08:57:04;16.40;;;14.20;;
10661;SDS011;5379;51.034;7.006;2022-08-19T08:59:38;23.27;;;19.17;;
10661;SDS011;5379;51.034;7.006;2022-08-19T09:02:09;21.50;;;16.70;;
10661;SDS011;5379;51.034;7.006;2022-08-19T09:04:36;20.13;;;16.87;;
10661;SDS011;5379;51.034;7.006;2022-08-19T09:07:10;16.57;;;14.00;;
10661;SDS011;5379;51.034;7.006;2022-08-19T09:09:49;16.63;;;14.90;;
10661;SDS011;5379;51.034;7.006;2022-08-19T09:12:19;23.10;;;17.83;;
10661;SDS011;5379;51.034;7.006;2022-08-19T09:14:53;34.53;;;21.60;;
10661;SDS011;5379;51.034;7.006;2022-08-19T09:17:25;30.20;;;16.33;;
10661;SDS011;5379;51.034;7.006;2022-08-19T09:19:56;27.87;;;22.50;;
10661;SDS011;5379;51.034;7.006;2022-08-19T09:22:33;26.43;;;20.50;;
10661;SDS011;5379;51.034;7.006;2022-08-19T09:25:01;27.47;;;19.97;;
10661;SDS011;5379;51.034;7.006;2022-08-19T09:27:30;33.77;;;23.47;;
10661;SDS011;5379;51.034;7.006;2022-08-19T09:29:58;33.73;;;23.00;;
10661;SDS011;5379;51.034;7.006;2022-08-19T09:32:27;18.97;;;15.80;;
10661;SDS011;5379;51.034;7.006;2022-08-19T09:34:54;26.97;;;18.93;;
10661;SDS011;5379;51.034;7.006;2022-08-19T09:37:23;27.43;;;19.63;;
10661;SDS011;5379;51.034;7.006;2022-08-19T09:39:50;31.93;;;21.07;;
10661;SDS011;5379;51.034;7.006;2022-08-19T09:42:17;20.27;;;14.27;;
10661;SDS011;5379;51.034;7.006;2022-08-19T09:44:44;24.27;;;17.07;;
10661;SDS011;5379;51.034;7.006;2022-08-19T09:47:13;30.20;;;18.50;;
10661;SDS011;5379;51.034;7.006;2022-08-19T09:49:42;22.10;;;18.80;;
10661;SDS011;5379;51.034;7.006;2022-08-19T09:52:09;24.87;;;17.80;;
10661;SDS011;5379;51.034;7.006;2022-08-19T09:54:38;23.00;;;15.27;;
10661;SDS011;5379;51.034;7.006;2022-08-19T09:57:05;26.53;;;15.27;;
10661;SDS011;5379;51.034;7.006;2022-08-19T09:59:32;21.57;;;18.07;;
10661;SDS011;5379;51.034;7.006;2022-08-19T10:01:59;14.60;;;12.60;;
10661;SDS011;5379;51.034;7.006;2022-08-19T10:04:27;24.80;;;14.00;;
10661;SDS011;5379;51.034;7.006;2022-08-19T10:07:15;21.17;;;16.00;;
10661;SDS011;5379;51.034;7.006;2022-08-19T10:09:42;25.60;;;15.23;;
10661;SDS011;5379;51.034;7.006;2022-08-19T10:12:09;12.43;;;9.67;;
10661;SDS011;5379;51.034;7.006;2022-08-19T10:14:37;19.00;;;13.17;;
10661;SDS011;5379;51.034;7.006;2022-08-19T10:17:05;13.43;;;10.40;;
10661;SDS011;5379;51.034;7.006;2022-08-19T10:19:32;19.20;;;11.83;;
10661;SDS011;5379;51.034;7.006;2022-08-19T10:22:02;9.30;;;8.13;;
10661;SDS011;5379;51.034;7.006;2022-08-19T10:24:32;14.07;;;9.63;;
10661;SDS011;5379;51.034;7.006;2022-08-19T10:27:00;11.17;;;9.87;;
10661;SDS011;5379;51.034;7.006;2022-08-19T10:29:28;11.97;;;9.43;;
10661;SDS011;5379;51.034;7.006;2022-08-19T10:31:56;12.83;;;10.60;;
10661;SDS011;5379;51.034;7.006;2022-08-19T10:34:25;15.03;;;11.37;;
10661;SDS011;5379;51.034;7.006;2022-08-19T10:36:52;12.83;;;10.80;;
10661;SDS011;5379;51.034;7.006;2022-08-19T10:39:20;14.23;;;11.30;;
10661;SDS011;5379;51.034;7.006;2022-08-19T10:41:48;19.90;;;9.67;;
10661;SDS011;5379;51.034;7.006;2022-08-19T10:44:15;17.57;;;10.33;;
10661;SDS011;5379;51.034;7.006;2022-08-19T10:46:43;8.37;;;7.47;;
10661;SDS011;5379;51.034;7.006;2022-08-19T10:49:12;12.87;;;9.77;;
10661;SDS011;5379;51.034;7.006;2022-08-19T10:51:39;17.87;;;11.67;;
10661;SDS011;5379;51.034;7.006;2022-08-19T10:54:25;12.50;;;10.70;;
10661;SDS011;5379;51.034;7.006;2022-08-19T10:57:14;12.73;;;10.03;;
10661;SDS011;5379;51.034;7.006;2022-08-19T10:59:40;11.73;;;9.03;;
10661;SDS011;5379;51.034;7.006;2022-08-19T11:02:08;9.63;;;8.70;;
10661;SDS011;5379;51.034;7.006;2022-08-19T11:04:37;21.37;;;8.77;;
10661;SDS011;5379;51.034;7.006;2022-08-19T11:07:05;8.50;;;7.50;;
10661;SDS011;5379;51.034;7.006;2022-08-19T11:09:36;12.93;;;6.73;;
10661;SDS011;5379;51.034;7.006;2022-08-19T11:12:05;8.37;;;7.20;;
10661;SDS011;5379;51.034;7.006;2022-08-19T11:14:36;8.17;;;6.67;;
10661;SDS011;5379;51.034;7.006;2022-08-19T11:17:03;7.67;;;6.93;;
10661;SDS011;5379;51.034;7.006;2022-08-19T11:19:32;8.90;;;7.10;;
10661;SDS011;5379;51.034;7.006;2022-08-19T11:22:00;9.03;;;6.63;;
10661;SDS011;5379;51.034;7.006;2022-08-19T11:24:28;11.63;;;7.63;;
10661;SDS011;5379;51.034;7.006;2022-08-19T11:27:00;10.30;;;7.97;;
10661;SDS011;5379;51.034;7.006;2022-08-19T11:29:32;8.63;;;7.37;;
10661;SDS011;5379;51.034;7.006;2022-08-19T11:32:03;9.80;;;7.83;;
10661;SDS011;5379;51.034;7.006;2022-08-19T11:34:31;7.40;;;6.60;;
10661;SDS011;5379;51.034;7.006;2022-08-19T11:37:00;7.60;;;6.77;;
10661;SDS011;5379;51.034;7.006;2022-08-19T11:39:29;11.17;;;8.00;;
10661;SDS011;5379;51.034;7.006;2022-08-19T11:41:57;7.70;;;6.33;;
10661;SDS011;5379;51.034;7.006;2022-08-19T11:44:26;14.00;;;7.13;;
10661;SDS011;5379;51.034;7.006;2022-08-19T11:46:55;11.63;;;7.30;;
10661;SDS011;5379;51.034;7.006;2022-08-19T11:49:24;10.70;;;6.40;;
10661;SDS011;5379;51.034;7.006;2022-08-19T11:51:51;8.93;;;7.33;;
10661;SDS011;5379;51.034;7.006;2022-08-19T11:54:18;8.47;;;6.47;;
10661;SDS011;5379;51.034;7.006;2022-08-19T11:56:45;8.07;;;6.63;;
10661;SDS011;5379;51.034;7.006;2022-08-19T11:59:14;8.23;;;6.97;;
10661;SDS011;5379;51.034;7.006;2022-08-19T12:01:41;9.07;;;5.77;;
10661;SDS011;5379;51.034;7.006;2022-08-19T12:04:08;10.77;;;6.20;;
10661;SDS011;5379;51.034;7.006;2022-08-19T12:06:38;7.53;;;6.83;;
10661;SDS011;5379;51.034;7.006;2022-08-19T12:09:07;8.53;;;6.27;;
10661;SDS011;5379;51.034;7.006;2022-08-19T12:11:36;9.17;;;5.77;;
10661;SDS011;5379;51.034;7.006;2022-08-19T12:14:04;6.20;;;5.63;;
10661;SDS011;5379;51.034;7.006;2022-08-19T12:16:32;6.73;;;5.93;;
10661;SDS011;5379;51.034;7.006;2022-08-19T12:19:00;9.63;;;6.37;;
10661;SDS011;5379;51.034;7.006;2022-08-19T12:21:30;5.27;;;4.77;;
10661;SDS011;5379;51.034;7.006;2022-08-19T12:24:00;13.30;;;5.60;;
10661;SDS011;5379;51.034;7.006;2022-08-19T12:26:29;5.57;;;4.93;;
10661;SDS011;5379;51.034;7.006;2022-08-19T12:28:57;5.90;;;5.30;;
10661;SDS011;5379;51.034;7.006;2022-08-19T12:31:25;8.33;;;5.67;;
10661;SDS011;5379;51.034;7.006;2022-08-19T12:33:53;6.73;;;5.03;;
10661;SDS011;5379;51.034;7.006;2022-08-19T12:36:20;5.23;;;4.73;;
10661;SDS011;5379;51.034;7.006;2022-08-19T12:38:48;6.53;;;4.73;;
10661;SDS011;5379;51.034;7.006;2022-08-19T12:41:17;4.57;;;4.17;;
10661;SDS011;5379;51.034;7.006;2022-08-19T12:43:47;7.17;;;5.30;;
10661;SDS011;5379;51.034;7.006;2022-08-19T12:46:15;4.97;;;4.20;;
10661;SDS011;5379;51.034;7.006;2022-08-19T12:48:43;4.80;;;4.40;;
10661;SDS011;5379;51.034;7.006;2022-08-19T12:51:12;5.67;;;4.80;;
10661;SDS011;5379;51.034;7.006;2022-08-19T12:53:42;6.83;;;4.10;;
10661;SDS011;5379;51.034;7.006;2022-08-19T12:56:10;7.33;;;4.90;;
10661;SDS011;5379;51.034;7.006;2022-08-19T12:58:41;9.90;;;4.53;;
10661;SDS011;5379;51.034;7.006;2022-08-19T13:01:09;5.93;;;4.33;;
10661;SDS011;5379;51.034;7.006;2022-08-19T13:03:37;5.53;;;4.90;;
10661;SDS011;5379;51.034;7.006;2022-08-19T13:06:05;4.63;;;4.23;;
10661;SDS011;5379;51.034;7.006;2022-08-19T13:08:33;5.00;;;4.50;;
10661;SDS011;5379;51.034;7.006;2022-08-19T13:11:06;5.93;;;4.53;;
10661;SDS011;5379;51.034;7.006;2022-08-19T13:13:36;8.57;;;4.77;;
10661;SDS011;5379;51.034;7.006;2022-08-19T13:16:08;5.27;;;4.30;;
10661;SDS011;5379;51.034;7.006;2022-08-19T13:18:36;7.73;;;4.07;;
10661;SDS011;5379;51.034;7.006;2022-08-19T13:21:04;4.70;;;4.23;;
10661;SDS011;5379;51.034;7.006;2022-08-19T13:23:33;6.03;;;4.80;;
10661;SDS011;5379;51.034;7.006;2022-08-19T13:26:02;4.80;;;4.40;;
10661;SDS011;5379;51.034;7.006;2022-08-19T13:28:32;7.63;;;4.57;;
10661;SDS011;5379;51.034;7.006;2022-08-19T13:31:16;6.13;;;5.30;;
10661;SDS011;5379;51.034;7.006;2022-08-19T13:34:02;5.00;;;4.50;;
10661;SDS011;5379;51.034;7.006;2022-08-19T13:36:29;5.07;;;4.57;;
10661;SDS011;5379;51.034;7.006;2022-08-19T13:38:56;5.57;;;4.33;;
10661;SDS011;5379;51.034;7.006;2022-08-19T13:41:23;4.63;;;4.23;;
10661;SDS011;5379;51.034;7.006;2022-08-19T13:43:51;8.07;;;4.33;;
10661;SDS011;5379;51.034;7.006;2022-08-19T13:46:19;5.10;;;4.60;;
10661;SDS011;5379;51.034;7.006;2022-08-19T13:48:47;4.60;;;3.70;;
10661;SDS011;5379;51.034;7.006;2022-08-19T13:51:16;4.57;;;3.80;;
10661;SDS011;5379;51.034;7.006;2022-08-19T13:53:43;12.50;;;4.30;;
10661;SDS011;5379;51.034;7.006;2022-08-19T13:56:12;4.97;;;3.53;;
10661;SDS011;5379;51.034;7.006;2022-08-19T13:58:40;6.77;;;3.87;;
10661;SDS011;5379;51.034;7.006;2022-08-19T14:01:08;6.80;;;3.90;;
10661;SDS011;5379;51.034;7.006;2022-08-19T14:03:37;6.97;;;3.50;;
10661;SDS011;5379;51.034;7.006;2022-08-19T14:06:05;9.57;;;3.73;;
10661;SDS011;5379;51.034;7.006;2022-08-19T14:08:32;10.73;;;3.60;;
10661;SDS011;5379;51.034;7.006;2022-08-19T14:10:59;6.40;;;3.40;;
10661;SDS011;5379;51.034;7.006;2022-08-19T14:13:26;5.27;;;3.90;;
10661;SDS011;5379;51.034;7.006;2022-08-19T14:15:53;4.70;;;3.20;;
10661;SDS011;5379;51.034;7.006;2022-08-19T14:18:20;2.63;;;2.30;;
10661;SDS011;5379;51.034;7.006;2022-08-19T14:20:49;4.50;;;3.10;;
10661;SDS011;5379;51.034;7.006;2022-08-19T14:23:16;5.33;;;3.30;;
10661;SDS011;5379;51.034;7.006;2022-08-19T14:25:43;4.10;;;3.13;;
10661;SDS011;5379;51.034;7.006;2022-08-19T14:28:11;5.57;;;3.67;;
10661;SDS011;5379;51.034;7.006;2022-08-19T14:30:38;6.30;;;3.57;;
10661;SDS011;5379;51.034;7.006;2022-08-19T14:33:05;4.23;;;3.60;;
10661;SDS011;5379;51.034;7.006;2022-08-19T14:35:33;4.50;;;3.50;;
10661;SDS011;5379;51.034;7.006;2022-08-19T14:38:02;3.43;;;2.87;;
10661;SDS011;5379;51.034;7.006;2022-08-19T14:40:30;3.67;;;3.07;;
10661;SDS011;5379;51.034;7.006;2022-08-19T14:42:58;4.03;;;3.27;;
10661;SDS011;5379;51.034;7.006;2022-08-19T14:45:29;2.50;;;2.30;;
10661;SDS011;5379;51.034;7.006;2022-08-19T14:47:57;3.20;;;2.83;;
10661;SDS011;5379;51.034;7.006;2022-08-19T14:50:25;3.83;;;2.57;;
10661;SDS011;5379;51.034;7.006;2022-08-19T14:52:57;6.07;;;3.07;;
10661;SDS011;5379;51.034;7.006;2022-08-19T14:55:27;4.23;;;2.73;;
10661;SDS011;5379;51.034;7.006;2022-08-19T14:57:54;2.97;;;2.77;;
10661;SDS011;5379;51.034;7.006;2022-08-19T15:00:21;2.83;;;2.63;;